sensor_id;sensor_type;location;lat;lon;timestamp;P1;durP1;ratioP1;P2;durP2;ratioP2
3207;SDS011;1616;52.394;9.756;2023-11-19T00:00:46;1.40;;;1.30;;
3207;SDS011;1616;52.394;9.756;2023-11-19T00:03:11;1.70;;;1.60;;
3207;SDS011;1616;52.394;9.756;2023-11-19T00:05:38;1.50;;;1.40;;
3207;SDS011;1616;52.394;9.756;2023-11-19T00:08:04;1.60;;;1.50;;
3207;SDS011;1616;52.394;9.756;2023-11-19T00:10:31;1.40;;;1.30;;
3207;SDS011;1616;52.394;9.756;2023-11-19T00:12:57;1.43;;;1.33;;
3207;SDS011;1616;52.394;9.756;2023-11-19T00:15:22;1.50;;;1.40;;
3207;SDS011;1616;52.394;9.756;2023-11-19T00:17:49;1.50;;;1.40;;
3207;SDS011;1616;52.394;9.756;2023-11-19T00:20:16;1.50;;;1.40;;
3207;SDS011;1616;52.394;9.756;2023-11-19T00:22:43;1.50;;;1.40;;
3207;SDS011;1616;52.394;9.756;2023-11-19T00:25:11;2.37;;;1.47;;
3207;SDS011;1616;52.394;9.756;2023-11-19T00:27:36;1.50;;;1.40;;
3207;SDS011;1616;52.394;9.756;2023-11-19T00:30:03;1.40;;;1.30;;
3207;SDS011;1616;52.394;9.756;2023-11-19T00:32:30;1.43;;;1.33;;
3207;SDS011;1616;52.394;9.756;2023-11-19T00:34:57;1.50;;;1.40;;
3207;SDS011;1616;52.394;9.756;2023-11-19T00:37:23;1.70;;;1.60;;
3207;SDS011;1616;52.394;9.756;2023-11-19T00:39:48;1.60;;;1.50;;
3207;SDS011;1616;52.394;9.756;2023-11-19T00:42:14;1.30;;;1.20;;
3207;SDS011;1616;52.394;9.756;2023-11-19T00:44:39;1.70;;;1.60;;
3207;SDS011;1616;52.394;9.756;2023-11-19T00:47:06;1.60;;;1.50;;
3207;SDS011;1616;52.394;9.756;2023-11-19T00:49:31;1.67;;;1.57;;
3207;SDS011;1616;52.394;9.756;2023-11-19T00:51:57;1.20;;;1.10;;
3207;SDS011;1616;52.394;9.756;2023-11-19T00:54:24;1.40;;;1.30;;
3207;SDS011;1616;52.394;9.756;2023-11-19T00:56:54;1.73;;;1.63;;
3207;SDS011;1616;52.394;9.756;2023-11-19T00:59:20;2.23;;;1.50;;
3207;SDS011;1616;52.394;9.756;2023-11-19T01:01:46;1.50;;;1.40;;
3207;SDS011;1616;52.394;9.756;2023-11-19T01:04:16;1.40;;;1.30;;
3207;SDS011;1616;52.394;9.756;2023-11-19T01:06:42;2.00;;;1.40;;
3207;SDS011;1616;52.394;9.756;2023-11-19T01:09:08;3.53;;;1.70;;
3207;SDS011;1616;52.394;9.756;2023-11-19T01:11:35;1.60;;;1.50;;
3207;SDS011;1616;52.394;9.756;2023-11-19T01:14:01;2.70;;;1.57;;
3207;SDS011;1616;52.394;9.756;2023-11-19T01:16:27;1.40;;;1.30;;
3207;SDS011;1616;52.394;9.756;2023-11-19T01:18:54;1.40;;;1.30;;
3207;SDS011;1616;52.394;9.756;2023-11-19T01:21:21;1.43;;;1.33;;
3207;SDS011;1616;52.394;9.756;2023-11-19T01:23:47;1.60;;;1.50;;
3207;SDS011;1616;52.394;9.756;2023-11-19T01:26:12;5.73;;;1.43;;
3207;SDS011;1616;52.394;9.756;2023-11-19T01:28:39;1.53;;;1.43;;
3207;SDS011;1616;52.394;9.756;2023-11-19T01:31:12;1.47;;;1.37;;
3207;SDS011;1616;52.394;9.756;2023-11-19T01:33:40;1.47;;;1.37;;
3207;SDS011;1616;52.394;9.756;2023-11-19T01:36:12;2.00;;;1.00;;
3207;SDS011;1616;52.394;9.756;2023-11-19T01:38:38;1.23;;;1.13;;
3207;SDS011;1616;52.394;9.756;2023-11-19T01:41:04;5.53;;;1.37;;
3207;SDS011;1616;52.394;9.756;2023-11-19T01:43:36;1.57;;;1.47;;
3207;SDS011;1616;52.394;9.756;2023-11-19T01:46:06;1.47;;;1.23;;
3207;SDS011;1616;52.394;9.756;2023-11-19T01:48:35;1.10;;;1.00;;
3207;SDS011;1616;52.394;9.756;2023-11-19T01:51:05;1.40;;;1.30;;
3207;SDS011;1616;52.394;9.756;2023-11-19T01:53:33;1.20;;;1.00;;
3207;SDS011;1616;52.394;9.756;2023-11-19T01:56:01;1.20;;;1.10;;
3207;SDS011;1616;52.394;9.756;2023-11-19T01:58:29;1.30;;;1.20;;
3207;SDS011;1616;52.394;9.756;2023-11-19T02:00:55;1.33;;;1.13;;
3207;SDS011;1616;52.394;9.756;2023-11-19T02:03:22;1.47;;;1.37;;
3207;SDS011;1616;52.394;9.756;2023-11-19T02:05:50;1.20;;;1.10;;
3207;SDS011;1616;52.394;9.756;2023-11-19T02:08:18;2.83;;;1.13;;
3207;SDS011;1616;52.394;9.756;2023-11-19T02:10:44;1.63;;;1.30;;
3207;SDS011;1616;52.394;9.756;2023-11-19T02:13:10;1.27;;;1.10;;
3207;SDS011;1616;52.394;9.756;2023-11-19T02:15:36;1.20;;;1.00;;
3207;SDS011;1616;52.394;9.756;2023-11-19T02:18:17;1.40;;;1.30;;
3207;SDS011;1616;52.394;9.756;2023-11-19T02:20:48;1.30;;;1.20;;
3207;SDS011;1616;52.394;9.756;2023-11-19T02:23:15;1.10;;;1.00;;
3207;SDS011;1616;52.394;9.756;2023-11-19T02:25:42;1.20;;;0.90;;
3207;SDS011;1616;52.394;9.756;2023-11-19T02:28:12;1.20;;;1.10;;
3207;SDS011;1616;52.394;9.756;2023-11-19T02:30:38;0.93;;;0.80;;
3207;SDS011;1616;52.394;9.756;2023-11-19T02:33:04;0.90;;;0.80;;
3207;SDS011;1616;52.394;9.756;2023-11-19T02:35:33;1.30;;;0.90;;
3207;SDS011;1616;52.394;9.756;2023-11-19T02:37:59;1.20;;;1.00;;
3207;SDS011;1616;52.394;9.756;2023-11-19T02:40:34;1.40;;;1.00;;
3207;SDS011;1616;52.394;9.756;2023-11-19T02:43:00;0.90;;;0.70;;
3207;SDS011;1616;52.394;9.756;2023-11-19T02:45:26;1.10;;;0.80;;
3207;SDS011;1616;52.394;9.756;2023-11-19T02:47:53;0.80;;;0.60;;
3207;SDS011;1616;52.394;9.756;2023-11-19T02:50:20;1.00;;;0.90;;
3207;SDS011;1616;52.394;9.756;2023-11-19T02:52:50;0.87;;;0.70;;
3207;SDS011;1616;52.394;9.756;2023-11-19T02:55:17;0.90;;;0.70;;
3207;SDS011;1616;52.394;9.756;2023-11-19T02:57:44;0.97;;;0.70;;
3207;SDS011;1616;52.394;9.756;2023-11-19T03:00:21;1.00;;;0.67;;
3207;SDS011;1616;52.394;9.756;2023-11-19T03:03:01;1.00;;;0.70;;
3207;SDS011;1616;52.394;9.756;2023-11-19T03:05:45;1.00;;;0.80;;
3207;SDS011;1616;52.394;9.756;2023-11-19T03:08:12;1.00;;;0.80;;
3207;SDS011;1616;52.394;9.756;2023-11-19T03:10:38;0.90;;;0.80;;
3207;SDS011;1616;52.394;9.756;2023-11-19T03:13:04;1.30;;;0.90;;
3207;SDS011;1616;52.394;9.756;2023-11-19T03:15:30;0.90;;;0.80;;
3207;SDS011;1616;52.394;9.756;2023-11-19T03:17:56;2.17;;;1.10;;
3207;SDS011;1616;52.394;9.756;2023-11-19T03:20:23;0.97;;;0.70;;
3207;SDS011;1616;52.394;9.756;2023-11-19T03:22:52;0.97;;;0.73;;
3207;SDS011;1616;52.394;9.756;2023-11-19T03:25:18;1.07;;;0.97;;
3207;SDS011;1616;52.394;9.756;2023-11-19T03:27:44;0.93;;;0.80;;
3207;SDS011;1616;52.394;9.756;2023-11-19T03:30:09;0.93;;;0.70;;
3207;SDS011;1616;52.394;9.756;2023-11-19T03:32:36;2.07;;;0.83;;
3207;SDS011;1616;52.394;9.756;2023-11-19T03:35:02;1.57;;;0.90;;
3207;SDS011;1616;52.394;9.756;2023-11-19T03:37:29;0.90;;;0.80;;
3207;SDS011;1616;52.394;9.756;2023-11-19T03:39:56;1.00;;;0.90;;
3207;SDS011;1616;52.394;9.756;2023-11-19T03:42:25;2.03;;;0.90;;
3207;SDS011;1616;52.394;9.756;2023-11-19T03:44:52;1.07;;;0.97;;
3207;SDS011;1616;52.394;9.756;2023-11-19T03:47:19;1.43;;;1.00;;
3207;SDS011;1616;52.394;9.756;2023-11-19T03:49:48;1.00;;;0.90;;
3207;SDS011;1616;52.394;9.756;2023-11-19T03:52:15;2.30;;;1.20;;
3207;SDS011;1616;52.394;9.756;2023-11-19T03:54:41;1.10;;;1.00;;
3207;SDS011;1616;52.394;9.756;2023-11-19T03:57:06;1.00;;;0.90;;
3207;SDS011;1616;52.394;9.756;2023-11-19T03:59:32;1.80;;;1.10;;
3207;SDS011;1616;52.394;9.756;2023-11-19T04:01:58;2.20;;;1.20;;
3207;SDS011;1616;52.394;9.756;2023-11-19T04:04:26;1.20;;;1.10;;
3207;SDS011;1616;52.394;9.756;2023-11-19T04:06:55;1.40;;;1.30;;
3207;SDS011;1616;52.394;9.756;2023-11-19T04:09:21;1.67;;;1.57;;
3207;SDS011;1616;52.394;9.756;2023-11-19T04:11:47;1.50;;;1.40;;
3207;SDS011;1616;52.394;9.756;2023-11-19T04:14:13;1.77;;;1.67;;
3207;SDS011;1616;52.394;9.756;2023-11-19T04:16:41;1.63;;;1.37;;
3207;SDS011;1616;52.394;9.756;2023-11-19T04:19:06;1.50;;;1.40;;
3207;SDS011;1616;52.394;9.756;2023-11-19T04:21:34;1.70;;;1.60;;
3207;SDS011;1616;52.394;9.756;2023-11-19T04:23:59;2.10;;;2.00;;
3207;SDS011;1616;52.394;9.756;2023-11-19T04:26:26;2.60;;;1.77;;
3207;SDS011;1616;52.394;9.756;2023-11-19T04:28:51;2.27;;;2.10;;
3207;SDS011;1616;52.394;9.756;2023-11-19T04:31:17;1.73;;;1.63;;
3207;SDS011;1616;52.394;9.756;2023-11-19T04:33:43;1.70;;;1.60;;
3207;SDS011;1616;52.394;9.756;2023-11-19T04:36:09;2.10;;;1.90;;
3207;SDS011;1616;52.394;9.756;2023-11-19T04:38:36;2.00;;;1.90;;
3207;SDS011;1616;52.394;9.756;2023-11-19T04:41:04;4.80;;;2.50;;
3207;SDS011;1616;52.394;9.756;2023-11-19T04:43:31;2.53;;;2.37;;
3207;SDS011;1616;52.394;9.756;2023-11-19T04:45:59;6.90;;;3.00;;
3207;SDS011;1616;52.394;9.756;2023-11-19T04:48:25;2.97;;;2.77;;
3207;SDS011;1616;52.394;9.756;2023-11-19T04:50:51;7.00;;;3.70;;
3207;SDS011;1616;52.394;9.756;2023-11-19T04:53:17;3.90;;;2.60;;
3207;SDS011;1616;52.394;9.756;2023-11-19T04:55:43;3.50;;;3.20;;
3207;SDS011;1616;52.394;9.756;2023-11-19T04:58:08;4.93;;;3.70;;
3207;SDS011;1616;52.394;9.756;2023-11-19T05:00:34;4.47;;;4.07;;
3207;SDS011;1616;52.394;9.756;2023-11-19T05:03:01;4.23;;;3.93;;
3207;SDS011;1616;52.394;9.756;2023-11-19T05:05:27;4.63;;;4.03;;
3207;SDS011;1616;52.394;9.756;2023-11-19T05:07:53;5.23;;;4.83;;
3207;SDS011;1616;52.394;9.756;2023-11-19T05:10:21;6.83;;;4.90;;
3207;SDS011;1616;52.394;9.756;2023-11-19T05:12:46;5.60;;;5.07;;
3207;SDS011;1616;52.394;9.756;2023-11-19T05:15:12;5.23;;;4.77;;
3207;SDS011;1616;52.394;9.756;2023-11-19T05:17:39;5.53;;;4.70;;
3207;SDS011;1616;52.394;9.756;2023-11-19T05:20:05;6.33;;;5.80;;
3207;SDS011;1616;52.394;9.756;2023-11-19T05:22:40;6.60;;;6.10;;
3207;SDS011;1616;52.394;9.756;2023-11-19T05:25:06;6.43;;;5.20;;
3207;SDS011;1616;52.394;9.756;2023-11-19T05:27:32;7.50;;;5.87;;
3207;SDS011;1616;52.394;9.756;2023-11-19T05:29:57;10.23;;;5.97;;
3207;SDS011;1616;52.394;9.756;2023-11-19T05:32:23;13.30;;;7.83;;
3207;SDS011;1616;52.394;9.756;2023-11-19T05:34:49;9.13;;;7.13;;
3207;SDS011;1616;52.394;9.756;2023-11-19T05:37:14;6.87;;;6.27;;
3207;SDS011;1616;52.394;9.756;2023-11-19T05:39:41;14.30;;;8.47;;
3207;SDS011;1616;52.394;9.756;2023-11-19T05:42:07;16.73;;;8.73;;
3207;SDS011;1616;52.394;9.756;2023-11-19T05:44:34;34.97;;;12.80;;
3207;SDS011;1616;52.394;9.756;2023-11-19T05:47:00;16.13;;;11.03;;
3207;SDS011;1616;52.394;9.756;2023-11-19T05:49:25;15.77;;;10.47;;
3207;SDS011;1616;52.394;9.756;2023-11-19T05:51:51;15.07;;;10.73;;
3207;SDS011;1616;52.394;9.756;2023-11-19T05:54:19;23.83;;;11.93;;
3207;SDS011;1616;52.394;9.756;2023-11-19T05:56:49;16.27;;;11.40;;
3207;SDS011;1616;52.394;9.756;2023-11-19T05:59:15;24.43;;;13.07;;
3207;SDS011;1616;52.394;9.756;2023-11-19T06:01:43;19.27;;;11.30;;
3207;SDS011;1616;52.394;9.756;2023-11-19T06:04:09;15.80;;;11.93;;
3207;SDS011;1616;52.394;9.756;2023-11-19T06:06:35;24.83;;;12.80;;
3207;SDS011;1616;52.394;9.756;2023-11-19T06:09:01;22.13;;;14.70;;
3207;SDS011;1616;52.394;9.756;2023-11-19T06:11:29;17.57;;;11.10;;
3207;SDS011;1616;52.394;9.756;2023-11-19T06:13:55;13.33;;;11.30;;
3207;SDS011;1616;52.394;9.756;2023-11-19T06:16:21;14.90;;;11.70;;
3207;SDS011;1616;52.394;9.756;2023-11-19T06:18:47;15.63;;;10.07;;
3207;SDS011;1616;52.394;9.756;2023-11-19T06:21:12;22.60;;;11.87;;
3207;SDS011;1616;52.394;9.756;2023-11-19T06:23:38;17.53;;;11.80;;
3207;SDS011;1616;52.394;9.756;2023-11-19T06:26:04;25.47;;;10.50;;
3207;SDS011;1616;52.394;9.756;2023-11-19T06:28:30;14.23;;;8.80;;
3207;SDS011;1616;52.394;9.756;2023-11-19T06:30:56;8.80;;;8.00;;
3207;SDS011;1616;52.394;9.756;2023-11-19T06:33:26;12.90;;;8.47;;
3207;SDS011;1616;52.394;9.756;2023-11-19T06:35:52;17.27;;;9.33;;
3207;SDS011;1616;52.394;9.756;2023-11-19T06:38:18;24.17;;;8.63;;
3207;SDS011;1616;52.394;9.756;2023-11-19T06:40:43;23.13;;;8.57;;
3207;SDS011;1616;52.394;9.756;2023-11-19T06:43:09;18.07;;;8.10;;
3207;SDS011;1616;52.394;9.756;2023-11-19T06:45:35;11.47;;;8.37;;
3207;SDS011;1616;52.394;9.756;2023-11-19T06:48:02;22.40;;;6.33;;
3207;SDS011;1616;52.394;9.756;2023-11-19T06:50:29;15.00;;;6.80;;
3207;SDS011;1616;52.394;9.756;2023-11-19T06:52:54;12.97;;;5.77;;
3207;SDS011;1616;52.394;9.756;2023-11-19T06:55:20;8.60;;;5.20;;
3207;SDS011;1616;52.394;9.756;2023-11-19T06:57:46;13.97;;;5.27;;
3207;SDS011;1616;52.394;9.756;2023-11-19T07:00:13;10.30;;;4.73;;
3207;SDS011;1616;52.394;9.756;2023-11-19T07:02:39;16.70;;;5.10;;
3207;SDS011;1616;52.394;9.756;2023-11-19T07:05:05;10.97;;;5.30;;
3207;SDS011;1616;52.394;9.756;2023-11-19T07:07:34;17.53;;;6.27;;
3207;SDS011;1616;52.394;9.756;2023-11-19T07:10:02;23.17;;;6.67;;
3207;SDS011;1616;52.394;9.756;2023-11-19T07:12:30;13.23;;;5.27;;
3207;SDS011;1616;52.394;9.756;2023-11-19T07:14:56;18.30;;;5.47;;
3207;SDS011;1616;52.394;9.756;2023-11-19T07:17:22;13.97;;;5.07;;
3207;SDS011;1616;52.394;9.756;2023-11-19T07:19:49;14.10;;;4.60;;
3207;SDS011;1616;52.394;9.756;2023-11-19T07:22:16;10.80;;;3.97;;
3207;SDS011;1616;52.394;9.756;2023-11-19T07:24:41;19.07;;;5.27;;
3207;SDS011;1616;52.394;9.756;2023-11-19T07:27:09;18.67;;;3.77;;
3207;SDS011;1616;52.394;9.756;2023-11-19T07:29:35;23.83;;;4.57;;
3207;SDS011;1616;52.394;9.756;2023-11-19T07:32:00;16.77;;;4.80;;
3207;SDS011;1616;52.394;9.756;2023-11-19T07:34:30;16.83;;;3.27;;
3207;SDS011;1616;52.394;9.756;2023-11-19T07:36:56;22.50;;;3.70;;
3207;SDS011;1616;52.394;9.756;2023-11-19T07:39:27;17.87;;;3.60;;
3207;SDS011;1616;52.394;9.756;2023-11-19T07:41:54;15.50;;;2.90;;
3207;SDS011;1616;52.394;9.756;2023-11-19T07:44:20;21.57;;;3.30;;
3207;SDS011;1616;52.394;9.756;2023-11-19T07:46:46;14.47;;;3.00;;
3207;SDS011;1616;52.394;9.756;2023-11-19T07:49:13;12.50;;;2.90;;
3207;SDS011;1616;52.394;9.756;2023-11-19T07:51:39;9.87;;;3.33;;
3207;SDS011;1616;52.394;9.756;2023-11-19T07:54:05;16.43;;;3.10;;
3207;SDS011;1616;52.394;9.756;2023-11-19T07:56:31;18.87;;;3.37;;
3207;SDS011;1616;52.394;9.756;2023-11-19T07:58:59;11.10;;;3.33;;
3207;SDS011;1616;52.394;9.756;2023-11-19T08:01:25;12.70;;;2.90;;
3207;SDS011;1616;52.394;9.756;2023-11-19T08:03:51;16.87;;;4.10;;
3207;SDS011;1616;52.394;9.756;2023-11-19T08:06:16;14.20;;;2.67;;
3207;SDS011;1616;52.394;9.756;2023-11-19T08:08:42;18.70;;;2.57;;
3207;SDS011;1616;52.394;9.756;2023-11-19T08:11:08;14.97;;;3.70;;
3207;SDS011;1616;52.394;9.756;2023-11-19T08:13:34;12.90;;;3.20;;
3207;SDS011;1616;52.394;9.756;2023-11-19T08:16:00;17.93;;;2.70;;
3207;SDS011;1616;52.394;9.756;2023-11-19T08:18:26;15.33;;;2.97;;
3207;SDS011;1616;52.394;9.756;2023-11-19T08:20:51;21.13;;;3.00;;
3207;SDS011;1616;52.394;9.756;2023-11-19T08:23:19;16.80;;;2.90;;
3207;SDS011;1616;52.394;9.756;2023-11-19T08:25:46;25.43;;;4.17;;
3207;SDS011;1616;52.394;9.756;2023-11-19T08:28:11;18.53;;;3.10;;
3207;SDS011;1616;52.394;9.756;2023-11-19T08:30:37;18.13;;;2.90;;
3207;SDS011;1616;52.394;9.756;2023-11-19T08:33:03;23.43;;;4.27;;
3207;SDS011;1616;52.394;9.756;2023-11-19T08:35:31;19.57;;;4.23;;
3207;SDS011;1616;52.394;9.756;2023-11-19T08:37:57;21.20;;;3.40;;
3207;SDS011;1616;52.394;9.756;2023-11-19T08:40:24;19.10;;;2.93;;
3207;SDS011;1616;52.394;9.756;2023-11-19T08:42:51;19.17;;;3.13;;
3207;SDS011;1616;52.394;9.756;2023-11-19T08:45:16;23.97;;;3.87;;
3207;SDS011;1616;52.394;9.756;2023-11-19T08:47:42;17.43;;;2.93;;
3207;SDS011;1616;52.394;9.756;2023-11-19T08:50:10;26.33;;;3.93;;
3207;SDS011;1616;52.394;9.756;2023-11-19T08:52:37;21.13;;;3.60;;
3207;SDS011;1616;52.394;9.756;2023-11-19T08:55:03;24.70;;;4.73;;
3207;SDS011;1616;52.394;9.756;2023-11-19T08:57:35;19.27;;;3.73;;
3207;SDS011;1616;52.394;9.756;2023-11-19T09:00:00;17.00;;;3.27;;
3207;SDS011;1616;52.394;9.756;2023-11-19T09:02:28;22.07;;;4.00;;
3207;SDS011;1616;52.394;9.756;2023-11-19T09:04:53;20.53;;;3.67;;
3207;SDS011;1616;52.394;9.756;2023-11-19T09:07:19;27.80;;;3.60;;
3207;SDS011;1616;52.394;9.756;2023-11-19T09:09:44;15.83;;;3.93;;
3207;SDS011;1616;52.394;9.756;2023-11-19T09:12:11;27.80;;;5.73;;
3207;SDS011;1616;52.394;9.756;2023-11-19T09:14:36;27.13;;;4.30;;
3207;SDS011;1616;52.394;9.756;2023-11-19T09:17:02;19.03;;;3.27;;
3207;SDS011;1616;52.394;9.756;2023-11-19T09:19:27;25.67;;;4.17;;
3207;SDS011;1616;52.394;9.756;2023-11-19T09:21:53;24.97;;;4.13;;
3207;SDS011;1616;52.394;9.756;2023-11-19T09:24:19;23.03;;;4.10;;
3207;SDS011;1616;52.394;9.756;2023-11-19T09:26:44;12.77;;;3.17;;
3207;SDS011;1616;52.394;9.756;2023-11-19T09:29:10;18.50;;;3.57;;
3207;SDS011;1616;52.394;9.756;2023-11-19T09:31:39;16.20;;;3.60;;
3207;SDS011;1616;52.394;9.756;2023-11-19T09:34:05;15.13;;;3.30;;
3207;SDS011;1616;52.394;9.756;2023-11-19T09:36:31;19.20;;;3.83;;
3207;SDS011;1616;52.394;9.756;2023-11-19T09:38:57;21.23;;;4.07;;
3207;SDS011;1616;52.394;9.756;2023-11-19T09:41:25;17.53;;;4.40;;
3207;SDS011;1616;52.394;9.756;2023-11-19T09:43:53;14.60;;;4.40;;
3207;SDS011;1616;52.394;9.756;2023-11-19T09:46:19;20.80;;;3.57;;
3207;SDS011;1616;52.394;9.756;2023-11-19T09:48:46;19.40;;;2.97;;
3207;SDS011;1616;52.394;9.756;2023-11-19T09:51:13;17.70;;;3.93;;
3207;SDS011;1616;52.394;9.756;2023-11-19T09:53:39;28.97;;;4.67;;
3207;SDS011;1616;52.394;9.756;2023-11-19T09:56:05;21.33;;;3.70;;
3207;SDS011;1616;52.394;9.756;2023-11-19T09:58:32;27.03;;;7.20;;
3207;SDS011;1616;52.394;9.756;2023-11-19T10:00:59;29.47;;;3.70;;
3207;SDS011;1616;52.394;9.756;2023-11-19T10:03:26;20.17;;;3.57;;
3207;SDS011;1616;52.394;9.756;2023-11-19T10:05:54;25.60;;;5.00;;
3207;SDS011;1616;52.394;9.756;2023-11-19T10:08:21;23.03;;;3.27;;
3207;SDS011;1616;52.394;9.756;2023-11-19T10:10:47;19.03;;;3.37;;
3207;SDS011;1616;52.394;9.756;2023-11-19T10:13:14;31.40;;;3.80;;
3207;SDS011;1616;52.394;9.756;2023-11-19T10:15:40;20.47;;;4.97;;
3207;SDS011;1616;52.394;9.756;2023-11-19T10:18:06;43.20;;;5.63;;
3207;SDS011;1616;52.394;9.756;2023-11-19T10:20:38;16.17;;;4.27;;
3207;SDS011;1616;52.394;9.756;2023-11-19T10:23:07;10.83;;;2.87;;
3207;SDS011;1616;52.394;9.756;2023-11-19T10:25:33;18.50;;;4.60;;
3207;SDS011;1616;52.394;9.756;2023-11-19T10:27:59;18.33;;;3.60;;
3207;SDS011;1616;52.394;9.756;2023-11-19T10:30:29;21.93;;;3.73;;
3207;SDS011;1616;52.394;9.756;2023-11-19T10:33:14;16.80;;;2.63;;
3207;SDS011;1616;52.394;9.756;2023-11-19T10:35:55;19.23;;;3.13;;
3207;SDS011;1616;52.394;9.756;2023-11-19T10:38:23;19.70;;;3.50;;
3207;SDS011;1616;52.394;9.756;2023-11-19T10:40:50;19.53;;;3.30;;
3207;SDS011;1616;52.394;9.756;2023-11-19T10:43:17;19.10;;;3.60;;
3207;SDS011;1616;52.394;9.756;2023-11-19T10:45:49;16.07;;;3.07;;
3207;SDS011;1616;52.394;9.756;2023-11-19T10:48:15;10.70;;;2.60;;
3207;SDS011;1616;52.394;9.756;2023-11-19T10:50:41;12.80;;;3.00;;
3207;SDS011;1616;52.394;9.756;2023-11-19T10:53:10;14.27;;;2.50;;
3207;SDS011;1616;52.394;9.756;2023-11-19T10:55:38;12.60;;;2.57;;
3207;SDS011;1616;52.394;9.756;2023-11-19T10:58:05;8.93;;;2.20;;
3207;SDS011;1616;52.394;9.756;2023-11-19T11:00:41;13.07;;;3.03;;
3207;SDS011;1616;52.394;9.756;2023-11-19T11:03:21;11.80;;;3.20;;
3207;SDS011;1616;52.394;9.756;2023-11-19T11:05:49;11.30;;;2.70;;
3207;SDS011;1616;52.394;9.756;2023-11-19T11:08:16;11.80;;;3.50;;
3207;SDS011;1616;52.394;9.756;2023-11-19T11:10:44;14.93;;;3.10;;
3207;SDS011;1616;52.394;9.756;2023-11-19T11:13:13;12.83;;;2.50;;
3207;SDS011;1616;52.394;9.756;2023-11-19T11:15:39;22.57;;;3.73;;
3207;SDS011;1616;52.394;9.756;2023-11-19T11:18:08;18.30;;;3.50;;
3207;SDS011;1616;52.394;9.756;2023-11-19T11:20:34;22.63;;;3.90;;
3207;SDS011;1616;52.394;9.756;2023-11-19T11:23:18;23.30;;;3.53;;
3207;SDS011;1616;52.394;9.756;2023-11-19T11:39:39;18.33;;;3.33;;
3207;SDS011;1616;52.394;9.756;2023-11-19T11:50:13;21.00;;;3.13;;
3207;SDS011;1616;52.394;9.756;2023-11-19T11:58:31;27.73;;;4.90;;
3207;SDS011;1616;52.394;9.756;2023-11-19T12:00:59;16.27;;;3.40;;
3207;SDS011;1616;52.394;9.756;2023-11-19T12:03:27;19.50;;;3.60;;
3207;SDS011;1616;52.394;9.756;2023-11-19T12:05:54;26.53;;;4.77;;
3207;SDS011;1616;52.394;9.756;2023-11-19T12:08:20;27.47;;;4.23;;
3207;SDS011;1616;52.394;9.756;2023-11-19T12:10:51;14.97;;;2.93;;
3207;SDS011;1616;52.394;9.756;2023-11-19T12:13:18;23.93;;;3.87;;
3207;SDS011;1616;52.394;9.756;2023-11-19T12:16:08;23.10;;;4.67;;
3207;SDS011;1616;52.394;9.756;2023-11-19T12:18:33;28.40;;;4.83;;
3207;SDS011;1616;52.394;9.756;2023-11-19T12:21:00;18.10;;;3.77;;
3207;SDS011;1616;52.394;9.756;2023-11-19T12:23:28;28.83;;;6.23;;
3207;SDS011;1616;52.394;9.756;2023-11-19T12:25:55;15.97;;;3.53;;
3207;SDS011;1616;52.394;9.756;2023-11-19T12:28:21;19.40;;;4.90;;
3207;SDS011;1616;52.394;9.756;2023-11-19T12:30:49;29.37;;;6.60;;
3207;SDS011;1616;52.394;9.756;2023-11-19T12:33:15;22.90;;;7.73;;
3207;SDS011;1616;52.394;9.756;2023-11-19T12:40:46;37.03;;;10.57;;
3207;SDS011;1616;52.394;9.756;2023-11-19T12:43:21;99.00;;;48.73;;
3207;SDS011;1616;52.394;9.756;2023-11-19T12:45:49;41.27;;;11.70;;
3207;SDS011;1616;52.394;9.756;2023-11-19T12:48:15;47.17;;;18.87;;
3207;SDS011;1616;52.394;9.756;2023-11-19T12:53:19;39.10;;;16.83;;
3207;SDS011;1616;52.394;9.756;2023-11-19T12:55:46;62.87;;;25.73;;
3207;SDS011;1616;52.394;9.756;2023-11-19T12:58:28;43.33;;;16.70;;
3207;SDS011;1616;52.394;9.756;2023-11-19T13:01:06;36.60;;;17.03;;
3207;SDS011;1616;52.394;9.756;2023-11-19T13:03:33;48.17;;;24.37;;
3207;SDS011;1616;52.394;9.756;2023-11-19T13:06:04;21.80;;;11.20;;
3207;SDS011;1616;52.394;9.756;2023-11-19T13:08:45;16.07;;;2.57;;
3207;SDS011;1616;52.394;9.756;2023-11-19T13:11:29;15.00;;;2.80;;
3207;SDS011;1616;52.394;9.756;2023-11-19T13:14:03;12.70;;;2.60;;
3207;SDS011;1616;52.394;9.756;2023-11-19T13:16:30;27.40;;;2.83;;
3207;SDS011;1616;52.394;9.756;2023-11-19T13:18:56;12.47;;;2.23;;
3207;SDS011;1616;52.394;9.756;2023-11-19T13:21:23;13.47;;;3.03;;
3207;SDS011;1616;52.394;9.756;2023-11-19T13:23:49;24.00;;;2.87;;
3207;SDS011;1616;52.394;9.756;2023-11-19T13:26:15;16.43;;;3.20;;
3207;SDS011;1616;52.394;9.756;2023-11-19T13:28:41;17.13;;;2.17;;
3207;SDS011;1616;52.394;9.756;2023-11-19T13:31:07;9.83;;;3.00;;
3207;SDS011;1616;52.394;9.756;2023-11-19T13:33:33;20.17;;;2.93;;
3207;SDS011;1616;52.394;9.756;2023-11-19T13:35:59;20.90;;;2.97;;
3207;SDS011;1616;52.394;9.756;2023-11-19T13:38:31;14.63;;;3.10;;
3207;SDS011;1616;52.394;9.756;2023-11-19T13:40:57;20.43;;;3.70;;
3207;SDS011;1616;52.394;9.756;2023-11-19T13:43:24;12.40;;;4.10;;
3207;SDS011;1616;52.394;9.756;2023-11-19T13:45:50;26.27;;;5.13;;
3207;SDS011;1616;52.394;9.756;2023-11-19T13:48:18;17.73;;;3.70;;
3207;SDS011;1616;52.394;9.756;2023-11-19T13:50:44;13.97;;;2.80;;
3207;SDS011;1616;52.394;9.756;2023-11-19T13:53:10;20.30;;;5.33;;
3207;SDS011;1616;52.394;9.756;2023-11-19T13:55:35;17.00;;;4.07;;
3207;SDS011;1616;52.394;9.756;2023-11-19T13:58:01;26.50;;;4.80;;
3207;SDS011;1616;52.394;9.756;2023-11-19T14:00:27;13.90;;;3.27;;
3207;SDS011;1616;52.394;9.756;2023-11-19T14:02:53;25.87;;;4.20;;
3207;SDS011;1616;52.394;9.756;2023-11-19T14:05:19;13.73;;;2.73;;
3207;SDS011;1616;52.394;9.756;2023-11-19T14:07:45;14.60;;;3.60;;
3207;SDS011;1616;52.394;9.756;2023-11-19T14:10:13;26.20;;;4.47;;
3207;SDS011;1616;52.394;9.756;2023-11-19T14:12:40;34.30;;;4.60;;
3207;SDS011;1616;52.394;9.756;2023-11-19T14:15:07;16.53;;;4.17;;
3207;SDS011;1616;52.394;9.756;2023-11-19T14:17:39;21.33;;;5.03;;
3207;SDS011;1616;52.394;9.756;2023-11-19T14:20:05;20.80;;;3.73;;
3207;SDS011;1616;52.394;9.756;2023-11-19T14:22:41;17.27;;;3.97;;
3207;SDS011;1616;52.394;9.756;2023-11-19T14:25:10;13.07;;;2.80;;
3207;SDS011;1616;52.394;9.756;2023-11-19T14:27:40;21.30;;;3.00;;
3207;SDS011;1616;52.394;9.756;2023-11-19T14:30:06;20.10;;;3.50;;
3207;SDS011;1616;52.394;9.756;2023-11-19T14:32:37;18.20;;;3.37;;
3207;SDS011;1616;52.394;9.756;2023-11-19T14:35:04;18.20;;;3.63;;
3207;SDS011;1616;52.394;9.756;2023-11-19T14:37:30;12.30;;;3.40;;
3207;SDS011;1616;52.394;9.756;2023-11-19T14:39:56;16.70;;;2.80;;
3207;SDS011;1616;52.394;9.756;2023-11-19T14:42:23;24.47;;;3.50;;
3207;SDS011;1616;52.394;9.756;2023-11-19T14:44:50;24.57;;;3.00;;
3207;SDS011;1616;52.394;9.756;2023-11-19T14:47:18;20.83;;;2.70;;
3207;SDS011;1616;52.394;9.756;2023-11-19T14:49:45;26.23;;;3.47;;
3207;SDS011;1616;52.394;9.756;2023-11-19T14:52:11;12.87;;;4.37;;
3207;SDS011;1616;52.394;9.756;2023-11-19T14:54:37;13.13;;;2.30;;
3207;SDS011;1616;52.394;9.756;2023-11-19T14:57:06;20.93;;;2.70;;
3207;SDS011;1616;52.394;9.756;2023-11-19T14:59:38;18.83;;;2.20;;
3207;SDS011;1616;52.394;9.756;2023-11-19T15:02:04;17.90;;;3.43;;
3207;SDS011;1616;52.394;9.756;2023-11-19T15:04:30;9.97;;;1.80;;
3207;SDS011;1616;52.394;9.756;2023-11-19T15:06:57;28.00;;;6.50;;
3207;SDS011;1616;52.394;9.756;2023-11-19T15:09:23;21.60;;;3.83;;
3207;SDS011;1616;52.394;9.756;2023-11-19T15:11:49;11.67;;;3.40;;
3207;SDS011;1616;52.394;9.756;2023-11-19T15:14:15;20.60;;;3.83;;
3207;SDS011;1616;52.394;9.756;2023-11-19T15:16:44;26.67;;;4.90;;
3207;SDS011;1616;52.394;9.756;2023-11-19T15:19:11;26.80;;;5.30;;
3207;SDS011;1616;52.394;9.756;2023-11-19T15:21:43;25.10;;;3.97;;
3207;SDS011;1616;52.394;9.756;2023-11-19T15:24:09;26.13;;;5.73;;
3207;SDS011;1616;52.394;9.756;2023-11-19T15:26:35;27.97;;;6.73;;
3207;SDS011;1616;52.394;9.756;2023-11-19T15:29:02;23.53;;;6.17;;
3207;SDS011;1616;52.394;9.756;2023-11-19T15:31:28;24.90;;;5.40;;
3207;SDS011;1616;52.394;9.756;2023-11-19T15:33:55;27.10;;;7.67;;
3207;SDS011;1616;52.394;9.756;2023-11-19T15:36:21;27.20;;;7.70;;
3207;SDS011;1616;52.394;9.756;2023-11-19T15:38:47;24.87;;;7.07;;
3207;SDS011;1616;52.394;9.756;2023-11-19T15:41:13;29.80;;;8.50;;